sensor_id;sensor_type;location;lat;lon;timestamp;pressure;altitude;pressure_sealevel;temperature;humidity
21706;BME280;11014;53.076;18.208;2023-11-18T00:00:36;101644.47;;;6.45;71.69
21706;BME280;11014;53.076;18.208;2023-11-18T00:03:25;101646.50;;;6.43;71.62
21706;BME280;11014;53.076;18.208;2023-11-18T00:05:56;101649.00;;;6.44;71.76
21706;BME280;11014;53.076;18.208;2023-11-18T00:08:24;101654.50;;;6.43;71.80
21706;BME280;11014;53.076;18.208;2023-11-18T00:10:53;101652.19;;;6.40;71.75
21706;BME280;11014;53.076;18.208;2023-11-18T00:13:22;101652.53;;;6.37;71.80
21706;BME280;11014;53.076;18.208;2023-11-18T00:15:51;101648.59;;;6.33;71.60
21706;BME280;11014;53.076;18.208;2023-11-18T00:18:19;101649.13;;;6.28;71.77
21706;BME280;11014;53.076;18.208;2023-11-18T00:20:58;101658.13;;;6.27;71.55
21706;BME280;11014;53.076;18.208;2023-11-18T00:23:26;101668.50;;;6.22;71.66
21706;BME280;11014;53.076;18.208;2023-11-18T00:25:55;101677.84;;;6.18;71.50
21706;BME280;11014;53.076;18.208;2023-11-18T00:28:43;101678.03;;;6.17;71.48
21706;BME280;11014;53.076;18.208;2023-11-18T00:31:12;101673.41;;;6.11;71.10
21706;BME280;11014;53.076;18.208;2023-11-18T00:33:40;101676.75;;;6.05;71.27
21706;BME280;11014;53.076;18.208;2023-11-18T00:36:09;101682.28;;;6.03;71.45
21706;BME280;11014;53.076;18.208;2023-11-18T00:38:37;101689.28;;;6.04;71.26
21706;BME280;11014;53.076;18.208;2023-11-18T00:41:06;101694.59;;;6.04;71.34
21706;BME280;11014;53.076;18.208;2023-11-18T00:43:35;101695.94;;;6.08;71.01
21706;BME280;11014;53.076;18.208;2023-11-18T00:46:04;101700.09;;;6.11;71.10
21706;BME280;11014;53.076;18.208;2023-11-18T00:48:33;101705.41;;;6.11;71.11
21706;BME280;11014;53.076;18.208;2023-11-18T00:51:02;101713.41;;;6.11;71.01
21706;BME280;11014;53.076;18.208;2023-11-18T00:53:32;101717.91;;;6.10;71.00
21706;BME280;11014;53.076;18.208;2023-11-18T00:56:01;101723.44;;;6.09;70.68
21706;BME280;11014;53.076;18.208;2023-11-18T00:58:30;101719.75;;;6.10;70.59
21706;BME280;11014;53.076;18.208;2023-11-18T01:00:58;101719.41;;;6.13;70.60
21706;BME280;11014;53.076;18.208;2023-11-18T01:03:26;101724.28;;;6.09;70.73
21706;BME280;11014;53.076;18.208;2023-11-18T01:05:56;101723.44;;;6.09;70.71
21706;BME280;11014;53.076;18.208;2023-11-18T01:08:25;101726.25;;;6.07;70.28
21706;BME280;11014;53.076;18.208;2023-11-18T01:10:53;101731.13;;;6.04;70.41
21706;BME280;11014;53.076;18.208;2023-11-18T01:13:22;101734.78;;;6.03;70.56
21706;BME280;11014;53.076;18.208;2023-11-18T01:15:52;101738.13;;;6.05;70.37
21706;BME280;11014;53.076;18.208;2023-11-18T01:18:21;101743.44;;;6.05;70.45
21706;BME280;11014;53.076;18.208;2023-11-18T01:20:50;101728.13;;;5.98;70.40
21706;BME280;11014;53.076;18.208;2023-11-18T01:23:18;101731.81;;;5.97;70.48
21706;BME280;11014;53.076;18.208;2023-11-18T01:25:47;101730.16;;;5.96;70.42
21706;BME280;11014;53.076;18.208;2023-11-18T01:28:18;101729.16;;;5.97;70.48
21706;BME280;11014;53.076;18.208;2023-11-18T01:30:46;101720.84;;;5.92;70.27
21706;BME280;11014;53.076;18.208;2023-11-18T01:33:15;101727.19;;;5.91;70.42
21706;BME280;11014;53.076;18.208;2023-11-18T01:35:44;101735.38;;;5.90;70.52
21706;BME280;11014;53.076;18.208;2023-11-18T01:38:13;101735.72;;;5.87;70.62
21706;BME280;11014;53.076;18.208;2023-11-18T01:40:41;101736.00;;;5.84;70.54
21706;BME280;11014;53.076;18.208;2023-11-18T01:43:10;101737.19;;;5.81;70.48
21706;BME280;11014;53.076;18.208;2023-11-18T01:45:43;101731.03;;;5.81;70.54
21706;BME280;11014;53.076;18.208;2023-11-18T01:48:12;101734.69;;;5.80;70.83
21706;BME280;11014;53.076;18.208;2023-11-18T01:50:42;101735.53;;;5.80;70.67
21706;BME280;11014;53.076;18.208;2023-11-18T01:53:13;101739.19;;;5.79;70.87
21706;BME280;11014;53.076;18.208;2023-11-18T01:55:42;101748.19;;;5.78;70.92
21706;BME280;11014;53.076;18.208;2023-11-18T01:58:11;101740.69;;;5.74;70.79
21706;BME280;11014;53.076;18.208;2023-11-18T02:00:42;101741.41;;;5.68;70.78
21706;BME280;11014;53.076;18.208;2023-11-18T02:03:12;101745.25;;;5.65;70.97
21706;BME280;11014;53.076;18.208;2023-11-18T02:05:41;101754.41;;;5.63;70.83
21706;BME280;11014;53.076;18.208;2023-11-18T02:08:11;101751.25;;;5.59;71.06
21706;BME280;11014;53.076;18.208;2023-11-18T02:10:48;101759.06;;;5.61;71.19
21706;BME280;11014;53.076;18.208;2023-11-18T02:13:22;101771.75;;;5.59;71.04
21706;BME280;11014;53.076;18.208;2023-11-18T02:15:56;101768.91;;;5.52;71.35
21706;BME280;11014;53.076;18.208;2023-11-18T02:18:25;101767.25;;;5.51;71.37
21706;BME280;11014;53.076;18.208;2023-11-18T02:20:56;101765.59;;;5.50;71.33
21706;BME280;11014;53.076;18.208;2023-11-18T02:23:27;101765.59;;;5.50;71.29
21706;BME280;11014;53.076;18.208;2023-11-18T02:25:57;101767.59;;;5.48;71.55
21706;BME280;11014;53.076;18.208;2023-11-18T02:28:27;101766.09;;;5.54;71.46
21706;BME280;11014;53.076;18.208;2023-11-18T02:31:13;101768.56;;;5.55;71.54
21706;BME280;11014;53.076;18.208;2023-11-18T02:33:50;101763.94;;;5.57;71.52
21706;BME280;11014;53.076;18.208;2023-11-18T02:36:32;101765.91;;;5.55;71.46
21706;BME280;11014;53.076;18.208;2023-11-18T02:39:10;101757.91;;;5.55;71.31
21706;BME280;11014;53.076;18.208;2023-11-18T02:41:47;101758.25;;;5.52;71.57
21706;BME280;11014;53.076;18.208;2023-11-18T02:44:18;101764.94;;;5.48;71.60
21706;BME280;11014;53.076;18.208;2023-11-18T02:46:49;101760.59;;;5.47;71.33
21706;BME280;11014;53.076;18.208;2023-11-18T02:49:20;101764.28;;;5.46;71.65
21706;BME280;11014;53.076;18.208;2023-11-18T02:51:50;101772.59;;;5.43;71.53
21706;BME280;11014;53.076;18.208;2023-11-18T02:54:20;101774.91;;;5.62;71.54
21706;BME280;11014;53.076;18.208;2023-11-18T02:56:49;101784.25;;;5.42;71.39
21706;BME280;11014;53.076;18.208;2023-11-18T02:59:18;101771.44;;;5.37;71.58
21706;BME280;11014;53.076;18.208;2023-11-18T03:01:47;101788.59;;;5.35;71.66
21706;BME280;11014;53.076;18.208;2023-11-18T03:04:24;101791.94;;;5.37;72.01
21706;BME280;11014;53.076;18.208;2023-11-18T03:06:53;101796.59;;;5.35;71.88
21706;BME280;11014;53.076;18.208;2023-11-18T03:09:21;101803.91;;;5.33;72.02
21706;BME280;11014;53.076;18.208;2023-11-18T03:11:50;101798.94;;;5.30;71.93
21706;BME280;11014;53.076;18.208;2023-11-18T03:14:19;101801.59;;;5.30;72.08
21706;BME280;11014;53.076;18.208;2023-11-18T03:16:48;101813.56;;;5.34;71.86
21706;BME280;11014;53.076;18.208;2023-11-18T03:19:16;101824.22;;;5.34;71.97
21706;BME280;11014;53.076;18.208;2023-11-18T03:21:50;101819.75;;;5.34;71.78
21706;BME280;11014;53.076;18.208;2023-11-18T03:24:19;101820.59;;;5.35;71.93
21706;BME280;11014;53.076;18.208;2023-11-18T03:26:48;101830.53;;;5.41;72.06
21706;BME280;11014;53.076;18.208;2023-11-18T03:29:17;101833.56;;;5.46;71.91
21706;BME280;11014;53.076;18.208;2023-11-18T03:31:46;101830.22;;;5.52;72.00
21706;BME280;11014;53.076;18.208;2023-11-18T03:34:17;101839.22;;;5.59;71.77
21706;BME280;11014;53.076;18.208;2023-11-18T03:36:48;101840.84;;;5.84;71.67
21706;BME280;11014;53.076;18.208;2023-11-18T03:39:17;101846.88;;;5.70;71.40
21706;BME280;11014;53.076;18.208;2023-11-18T03:41:46;101853.84;;;5.71;71.55
21706;BME280;11014;53.076;18.208;2023-11-18T03:44:15;101851.88;;;5.73;71.51
21706;BME280;11014;53.076;18.208;2023-11-18T03:46:43;101852.19;;;5.70;71.25
21706;BME280;11014;53.076;18.208;2023-11-18T03:49:12;101855.53;;;5.72;71.61
21706;BME280;11014;53.076;18.208;2023-11-18T03:51:41;101859.34;;;5.78;71.50
21706;BME280;11014;53.076;18.208;2023-11-18T03:54:10;101864.16;;;5.82;71.29
21706;BME280;11014;53.076;18.208;2023-11-18T03:56:39;101862.19;;;5.84;71.18
21706;BME280;11014;53.076;18.208;2023-11-18T03:59:07;101871.53;;;5.88;71.08
21706;BME280;11014;53.076;18.208;2023-11-18T04:01:38;101877.69;;;5.89;71.29
21706;BME280;11014;53.076;18.208;2023-11-18T04:04:06;101878.53;;;5.89;71.09
21706;BME280;11014;53.076;18.208;2023-11-18T04:06:35;101882.84;;;5.90;71.16
21706;BME280;11014;53.076;18.208;2023-11-18T04:09:03;101896.34;;;5.97;71.20
21706;BME280;11014;53.076;18.208;2023-11-18T04:11:34;101880.84;;;6.01;70.87
21706;BME280;11014;53.076;18.208;2023-11-18T04:14:03;101885.66;;;5.97;70.78
21706;BME280;11014;53.076;18.208;2023-11-18T04:16:32;101885.84;;;5.95;70.91
21706;BME280;11014;53.076;18.208;2023-11-18T04:19:00;101890.50;;;5.93;71.02
21706;BME280;11014;53.076;18.208;2023-11-18T04:21:31;101894.66;;;5.96;71.03
21706;BME280;11014;53.076;18.208;2023-11-18T04:23:59;101891.84;;;5.97;70.85
21706;BME280;11014;53.076;18.208;2023-11-18T04:26:29;101896.34;;;5.97;71.19
21706;BME280;11014;53.076;18.208;2023-11-18T04:28:58;101888.16;;;5.98;71.15
21706;BME280;11014;53.076;18.208;2023-11-18T04:31:27;101909.16;;;6.02;70.97
21706;BME280;11014;53.076;18.208;2023-11-18T04:33:55;101905.84;;;6.00;70.88
21706;BME280;11014;53.076;18.208;2023-11-18T04:36:24;101914.81;;;5.98;70.89
21706;BME280;11014;53.076;18.208;2023-11-18T04:38:55;101925.88;;;5.95;71.09
21706;BME280;11014;53.076;18.208;2023-11-18T04:41:24;101912.19;;;5.90;70.87
21706;BME280;11014;53.076;18.208;2023-11-18T04:43:52;101917.50;;;5.90;71.25
21706;BME280;11014;53.076;18.208;2023-11-18T04:46:21;101915.66;;;5.83;71.07
21706;BME280;11014;53.076;18.208;2023-11-18T04:48:50;101918.50;;;5.81;71.38
21706;BME280;11014;53.076;18.208;2023-11-18T04:51:19;101920.16;;;5.82;71.29
21706;BME280;11014;53.076;18.208;2023-11-18T04:53:48;101924.69;;;5.90;71.62
21706;BME280;11014;53.076;18.208;2023-11-18T04:56:17;101931.19;;;5.95;71.52
21706;BME280;11014;53.076;18.208;2023-11-18T04:58:46;101930.50;;;6.02;71.16
21706;BME280;11014;53.076;18.208;2023-11-18T05:01:16;101936.53;;;6.04;71.32
21706;BME280;11014;53.076;18.208;2023-11-18T05:03:46;101946.66;;;6.08;71.11
21706;BME280;11014;53.076;18.208;2023-11-18T05:06:15;101947.97;;;6.12;71.03
21706;BME280;11014;53.076;18.208;2023-11-18T05:08:44;101942.31;;;6.15;70.93
21706;BME280;11014;53.076;18.208;2023-11-18T05:11:14;101943.16;;;6.16;71.02
21706;BME280;11014;53.076;18.208;2023-11-18T05:13:43;101947.84;;;6.14;71.17
21706;BME280;11014;53.076;18.208;2023-11-18T05:16:12;101945.16;;;6.14;71.18
21706;BME280;11014;53.076;18.208;2023-11-18T05:18:40;101952.66;;;6.18;71.29
21706;BME280;11014;53.076;18.208;2023-11-18T05:21:10;101954.31;;;6.19;71.29
21706;BME280;11014;53.076;18.208;2023-11-18T05:23:39;101948.34;;;6.17;71.07
21706;BME280;11014;53.076;18.208;2023-11-18T05:26:08;101951.47;;;6.21;71.20
21706;BME280;11014;53.076;18.208;2023-11-18T05:28:37;101950.63;;;6.20;71.49
21706;BME280;11014;53.076;18.208;2023-11-18T05:31:06;101958.50;;;6.22;71.21
21706;BME280;11014;53.076;18.208;2023-11-18T05:33:36;101968.00;;;6.24;71.42
21706;BME280;11014;53.076;18.208;2023-11-18T05:36:06;101971.31;;;6.26;71.50
21706;BME280;11014;53.076;18.208;2023-11-18T05:38:34;101977.66;;;6.25;71.59
21706;BME280;11014;53.076;18.208;2023-11-18T05:41:04;101967.66;;;6.27;71.53
21706;BME280;11014;53.076;18.208;2023-11-18T05:43:34;101969.81;;;6.32;71.35
21706;BME280;11014;53.076;18.208;2023-11-18T05:46:09;101963.28;;;6.34;71.27
21706;BME280;11014;53.076;18.208;2023-11-18T05:49:04;101970.47;;;6.42;71.47
21706;BME280;11014;53.076;18.208;2023-11-18T05:51:36;101975.81;;;6.42;71.07
21706;BME280;11014;53.076;18.208;2023-11-18T05:54:04;101970.81;;;6.39;71.37
21706;BME280;11014;53.076;18.208;2023-11-18T05:56:34;101980.00;;;6.36;71.57
21706;BME280;11014;53.076;18.208;2023-11-18T05:59:03;101983.00;;;6.33;71.60
21706;BME280;11014;53.076;18.208;2023-11-18T06:01:32;101978.84;;;6.31;71.49
21706;BME280;11014;53.076;18.208;2023-11-18T06:04:00;101985.50;;;6.27;71.70
21706;BME280;11014;53.076;18.208;2023-11-18T06:06:29;101974.84;;;6.19;71.56
21706;BME280;11014;53.076;18.208;2023-11-18T06:09:00;101987.00;;;6.13;71.57
21706;BME280;11014;53.076;18.208;2023-11-18T06:11:33;101990.53;;;6.06;71.46
21706;BME280;11014;53.076;18.208;2023-11-18T06:14:02;101985.66;;;6.01;71.49
21706;BME280;11014;53.076;18.208;2023-11-18T06:16:31;101996.00;;;5.96;71.58
21706;BME280;11014;53.076;18.208;2023-11-18T06:18:59;102006.03;;;5.86;71.71
21706;BME280;11014;53.076;18.208;2023-11-18T06:21:28;102006.16;;;5.76;71.64
21706;BME280;11014;53.076;18.208;2023-11-18T06:23:59;102003.47;;;5.68;71.52
21706;BME280;11014;53.076;18.208;2023-11-18T06:26:28;102009.16;;;5.65;71.92
21706;BME280;11014;53.076;18.208;2023-11-18T06:28:57;102012.47;;;5.67;71.70
21706;BME280;11014;53.076;18.208;2023-11-18T06:31:28;102017.81;;;5.75;71.83
21706;BME280;11014;53.076;18.208;2023-11-18T06:33:57;102013.81;;;5.79;72.11
21706;BME280;11014;53.076;18.208;2023-11-18T06:36:26;102019.50;;;5.84;71.93
21706;BME280;11014;53.076;18.208;2023-11-18T06:38:56;102012.53;;;5.91;72.28
21706;BME280;11014;53.076;18.208;2023-11-18T06:41:25;102015.84;;;6.02;72.18
21706;BME280;11014;53.076;18.208;2023-11-18T06:44:02;102023.03;;;6.09;72.03
21706;BME280;11014;53.076;18.208;2023-11-18T06:46:46;102017.19;;;6.14;71.79
21706;BME280;11014;53.076;18.208;2023-11-18T06:49:14;102033.88;;;6.16;71.83
21706;BME280;11014;53.076;18.208;2023-11-18T06:51:44;102031.38;;;6.14;71.82
21706;BME280;11014;53.076;18.208;2023-11-18T06:54:13;102035.88;;;6.14;71.85
21706;BME280;11014;53.076;18.208;2023-11-18T06:56:43;102036.72;;;6.14;71.90
21706;BME280;11014;53.076;18.208;2023-11-18T06:59:13;102040.69;;;6.10;71.78
21706;BME280;11014;53.076;18.208;2023-11-18T07:01:44;102034.53;;;6.10;71.94
21706;BME280;11014;53.076;18.208;2023-11-18T07:04:14;102046.88;;;6.11;71.93
21706;BME280;11014;53.076;18.208;2023-11-18T07:06:44;102051.53;;;6.17;72.12
21706;BME280;11014;53.076;18.208;2023-11-18T07:09:13;102059.88;;;6.22;72.22
21706;BME280;11014;53.076;18.208;2023-11-18T07:11:47;102058.88;;;6.31;71.97
21706;BME280;11014;53.076;18.208;2023-11-18T07:14:17;102064.38;;;6.37;72.14
21706;BME280;11014;53.076;18.208;2023-11-18T07:16:46;102064.69;;;6.42;72.12
21706;BME280;11014;53.076;18.208;2023-11-18T07:19:15;102057.19;;;6.46;71.92
21706;BME280;11014;53.076;18.208;2023-11-18T07:21:50;102069.53;;;6.47;71.91
21706;BME280;11014;53.076;18.208;2023-11-18T07:24:19;102061.03;;;6.43;72.04
21706;BME280;11014;53.076;18.208;2023-11-18T07:26:50;102059.34;;;6.42;71.92
21706;BME280;11014;53.076;18.208;2023-11-18T07:29:19;102067.88;;;6.46;72.26
21706;BME280;11014;53.076;18.208;2023-11-18T07:31:48;102058.88;;;6.47;71.95
21706;BME280;11014;53.076;18.208;2023-11-18T07:34:17;102055.19;;;6.48;72.21
21706;BME280;11014;53.076;18.208;2023-11-18T07:36:46;102049.03;;;6.47;72.31
21706;BME280;11014;53.076;18.208;2023-11-18T07:39:15;102049.84;;;6.48;72.32
21706;BME280;11014;53.076;18.208;2023-11-18T07:41:44;102065.19;;;6.54;72.15
21706;BME280;11014;53.076;18.208;2023-11-18T07:44:14;102062.53;;;6.54;72.21
21706;BME280;11014;53.076;18.208;2023-11-18T07:50:54;102066.84;;;6.63;71.66
21706;BME280;11014;53.076;18.208;2023-11-18T07:53:23;102070.69;;;6.61;72.04
21706;BME280;11014;53.076;18.208;2023-11-18T07:55:52;102070.50;;;6.62;71.86
21706;BME280;11014;53.076;18.208;2023-11-18T07:58:20;102064.53;;;6.60;72.20
21706;BME280;11014;53.076;18.208;2023-11-18T08:00:51;102064.66;;;6.58;72.15
21706;BME280;11014;53.076;18.208;2023-11-18T08:03:21;102074.53;;;6.58;72.09
21706;BME280;11014;53.076;18.208;2023-11-18T08:05:50;102079.56;;;6.61;72.21
21706;BME280;11014;53.076;18.208;2023-11-18T08:08:19;102068.50;;;6.64;72.40
21706;BME280;11014;53.076;18.208;2023-11-18T08:10:47;102069.19;;;6.66;72.24
21706;BME280;11014;53.076;18.208;2023-11-18T08:13:17;102074.84;;;6.71;72.32
21706;BME280;11014;53.076;18.208;2023-11-18T08:15:46;102077.84;;;6.68;71.94
21706;BME280;11014;53.076;18.208;2023-11-18T08:18:14;102083.19;;;6.68;71.88
21706;BME280;11014;53.076;18.208;2023-11-18T08:24:50;102090.69;;;6.73;71.61
21706;BME280;11014;53.076;18.208;2023-11-18T08:27:18;102087.88;;;6.74;71.78
21706;BME280;11014;53.076;18.208;2023-11-18T08:29:49;102084.16;;;6.75;72.04
21706;BME280;11014;53.076;18.208;2023-11-18T08:32:18;102083.00;;;6.78;71.81
21706;BME280;11014;53.076;18.208;2023-11-18T08:34:50;102085.19;;;6.82;71.99
21706;BME280;11014;53.076;18.208;2023-11-18T08:37:21;102087.69;;;6.76;71.13
21706;BME280;11014;53.076;18.208;2023-11-18T08:39:51;102077.84;;;6.68;71.12
21706;BME280;11014;53.076;18.208;2023-11-18T08:42:44;102072.84;;;6.65;71.49
21706;BME280;11014;53.076;18.208;2023-11-18T08:45:21;102081.19;;;6.70;71.73
21706;BME280;11014;53.076;18.208;2023-11-18T08:47:50;102080.31;;;6.78;71.50
21706;BME280;11014;53.076;18.208;2023-11-18T08:50:23;102093.34;;;6.81;71.41
21706;BME280;11014;53.076;18.208;2023-11-18T08:52:55;102099.72;;;6.80;71.15
21706;BME280;11014;53.076;18.208;2023-11-18T08:55:29;102103.88;;;6.82;71.19
21706;BME280;11014;53.076;18.208;2023-11-18T08:58:10;102102.81;;;7.07;70.63
21706;BME280;11014;53.076;18.208;2023-11-18T09:00:56;102099.16;;;6.92;70.76
21706;BME280;11014;53.076;18.208;2023-11-18T09:03:36;102093.84;;;6.84;70.91
21706;BME280;11014;53.076;18.208;2023-11-18T09:06:06;102095.84;;;6.90;71.19
21706;BME280;11014;53.076;18.208;2023-11-18T09:08:56;102103.84;;;6.90;71.01
21706;BME280;11014;53.076;18.208;2023-11-18T09:12:06;102104.69;;;6.91;70.80
21706;BME280;11014;53.076;18.208;2023-11-18T09:14:40;102111.56;;;6.85;70.75
21706;BME280;11014;53.076;18.208;2023-11-18T09:17:14;102113.88;;;6.88;70.99
21706;BME280;11014;53.076;18.208;2023-11-18T09:19:47;102112.84;;;6.89;71.19
21706;BME280;11014;53.076;18.208;2023-11-18T09:22:30;102124.38;;;6.98;71.06
21706;BME280;11014;53.076;18.208;2023-11-18T09:25:00;102118.47;;;7.10;70.78
21706;BME280;11014;53.076;18.208;2023-11-18T09:27:29;102124.47;;;7.29;71.01
21706;BME280;11014;53.076;18.208;2023-11-18T09:29:58;102124.72;;;7.42;70.48
21706;BME280;11014;53.076;18.208;2023-11-18T09:32:31;102129.06;;;7.51;70.53
21706;BME280;11014;53.076;18.208;2023-11-18T09:35:06;102134.34;;;7.59;70.12
21706;BME280;11014;53.076;18.208;2023-11-18T09:37:43;102139.66;;;7.67;70.01
21706;BME280;11014;53.076;18.208;2023-11-18T09:40:15;102151.31;;;7.74;69.90
21706;BME280;11014;53.076;18.208;2023-11-18T09:43:00;102155.28;;;7.86;69.88
21706;BME280;11014;53.076;18.208;2023-11-18T09:45:53;102162.28;;;7.87;69.07
21706;BME280;11014;53.076;18.208;2023-11-18T09:48:23;102163.00;;;7.81;69.23
21706;BME280;11014;53.076;18.208;2023-11-18T09:50:56;102165.34;;;7.76;68.66
21706;BME280;11014;53.076;18.208;2023-11-18T09:53:28;102178.59;;;7.69;68.65
21706;BME280;11014;53.076;18.208;2023-11-18T09:56:07;102190.47;;;7.67;68.35
21706;BME280;11014;53.076;18.208;2023-11-18T09:58:45;102190.16;;;7.70;68.53
21706;BME280;11014;53.076;18.208;2023-11-18T10:01:17;102184.78;;;7.70;68.33
21706;BME280;11014;53.076;18.208;2023-11-18T10:03:55;102169.34;;;7.80;68.60
21706;BME280;11014;53.076;18.208;2023-11-18T10:06:26;102179.66;;;7.91;68.18
21706;BME280;11014;53.076;18.208;2023-11-18T10:09:03;102175.16;;;7.92;67.78
21706;BME280;11014;53.076;18.208;2023-11-18T10:11:44;102181.34;;;7.92;67.38
21706;BME280;11014;53.076;18.208;2023-11-18T10:14:16;102182.19;;;7.85;66.97
21706;BME280;11014;53.076;18.208;2023-11-18T10:16:46;102182.94;;;7.70;66.71
21706;BME280;11014;53.076;18.208;2023-11-18T10:19:17;102182.16;;;7.62;66.99
21706;BME280;11014;53.076;18.208;2023-11-18T10:21:46;102182.53;;;7.51;67.06
21706;BME280;11014;53.076;18.208;2023-11-18T10:24:18;102179.03;;;7.42;66.99
21706;BME280;11014;53.076;18.208;2023-11-18T10:26:55;102171.53;;;7.38;67.22
21706;BME280;11014;53.076;18.208;2023-11-18T10:29:27;102169.38;;;7.33;67.17
21706;BME280;11014;53.076;18.208;2023-11-18T10:32:05;102176.09;;;7.29;67.46
21706;BME280;11014;53.076;18.208;2023-11-18T10:34:36;102186.28;;;7.18;67.08
21706;BME280;11014;53.076;18.208;2023-11-18T10:37:05;102182.78;;;7.09;67.45
21706;BME280;11014;53.076;18.208;2023-11-18T10:39:34;102187.28;;;7.08;67.46
21706;BME280;11014;53.076;18.208;2023-11-18T10:42:04;102185.66;;;7.07;67.30
21706;BME280;11014;53.076;18.208;2023-11-18T10:44:33;102186.97;;;7.11;67.52
21706;BME280;11014;53.076;18.208;2023-11-18T10:47:02;102196.13;;;7.17;67.06
21706;BME280;11014;53.076;18.208;2023-11-18T10:49:31;102205.81;;;7.26;66.95
21706;BME280;11014;53.076;18.208;2023-11-18T10:52:06;102202.56;;;7.47;66.89
21706;BME280;11014;53.076;18.208;2023-11-18T10:54:37;102206.66;;;7.73;67.00
21706;BME280;11014;53.076;18.208;2023-11-18T10:57:06;102208.38;;;8.05;66.93
21706;BME280;11014;53.076;18.208;2023-11-18T10:59:59;102215.25;;;8.39;65.72
21706;BME280;11014;53.076;18.208;2023-11-18T11:02:30;102212.38;;;8.40;65.66
21706;BME280;11014;53.076;18.208;2023-11-18T11:05:04;102210.53;;;8.41;64.79
21706;BME280;11014;53.076;18.208;2023-11-18T11:07:33;102204.88;;;8.36;64.55
21706;BME280;11014;53.076;18.208;2023-11-18T11:10:01;102204.75;;;8.29;64.46
21706;BME280;11014;53.076;18.208;2023-11-18T11:12:37;102205.75;;;8.20;63.91
21706;BME280;11014;53.076;18.208;2023-11-18T11:15:28;102205.59;;;8.21;64.13
21706;BME280;11014;53.076;18.208;2023-11-18T11:18:05;102212.47;;;8.92;63.30
21706;BME280;11014;53.076;18.208;2023-11-18T11:20:59;102207.66;;;9.83;61.12
21706;BME280;11014;53.076;18.208;2023-11-18T11:26:50;102214.41;;;10.93;58.57
21706;BME280;11014;53.076;18.208;2023-11-18T11:29:51;102214.50;;;11.96;55.68
21706;BME280;11014;53.076;18.208;2023-11-18T11:32:28;102218.41;;;12.67;54.10
21706;BME280;11014;53.076;18.208;2023-11-18T11:35:02;102221.31;;;13.51;51.88
21706;BME280;11014;53.076;18.208;2023-11-18T11:37:36;102204.03;;;13.65;50.06
21706;BME280;11014;53.076;18.208;2023-11-18T11:40:08;102209.41;;;13.78;51.29
21706;BME280;11014;53.076;18.208;2023-11-18T11:42:40;102223.03;;;13.13;50.15
21706;BME280;11014;53.076;18.208;2023-11-18T11:45:11;102211.38;;;12.99;49.86
21706;BME280;11014;53.076;18.208;2023-11-18T11:47:49;102225.69;;;12.80;51.52
21706;BME280;11014;53.076;18.208;2023-11-18T11:50:24;102230.81;;;12.55;51.85
21706;BME280;11014;53.076;18.208;2023-11-18T11:53:10;102233.13;;;12.58;51.62
21706;BME280;11014;53.076;18.208;2023-11-18T11:55:49;102225.78;;;12.26;51.49
21706;BME280;11014;53.076;18.208;2023-11-18T11:58:29;102222.41;;;12.04;52.10
21706;BME280;11014;53.076;18.208;2023-11-18T12:03:56;102231.53;;;11.41;51.60
21706;BME280;11014;53.076;18.208;2023-11-18T12:06:27;102227.63;;;11.16;51.58
21706;BME280;11014;53.076;18.208;2023-11-18T12:08:59;102226.91;;;11.01;52.03
21706;BME280;11014;53.076;18.208;2023-11-18T12:11:35;102228.31;;;10.76;52.04
21706;BME280;11014;53.076;18.208;2023-11-18T12:15:50;102232.41;;;10.50;52.74
21706;BME280;11014;53.076;18.208;2023-11-18T12:18:39;102236.09;;;10.28;53.19
21706;BME280;11014;53.076;18.208;2023-11-18T12:21:10;102229.56;;;10.16;53.88
21706;BME280;11014;53.076;18.208;2023-11-18T12:24:15;102234.72;;;10.18;54.51
21706;BME280;11014;53.076;18.208;2023-11-18T12:26:53;102233.59;;;9.97;54.28
21706;BME280;11014;53.076;18.208;2023-11-18T12:29:31;102224.75;;;9.97;54.23
21706;BME280;11014;53.076;18.208;2023-11-18T12:32:03;102228.81;;;9.93;54.47
21706;BME280;11014;53.076;18.208;2023-11-18T12:34:55;102224.75;;;9.97;54.62
21706;BME280;11014;53.076;18.208;2023-11-18T12:40:48;102229.44;;;9.95;54.17
21706;BME280;11014;53.076;18.208;2023-11-18T12:49:33;102221.06;;;9.69;54.67
21706;BME280;11014;53.076;18.208;2023-11-18T12:52:12;102225.56;;;9.53;55.24
21706;BME280;11014;53.076;18.208;2023-11-18T12:54:49;102236.88;;;9.49;55.43
21706;BME280;11014;53.076;18.208;2023-11-18T12:57:27;102232.16;;;9.36;55.24
21706;BME280;11014;53.076;18.208;2023-11-18T13:00:00;102249.34;;;9.27;55.12
21706;BME280;11014;53.076;18.208;2023-11-18T13:02:33;102243.59;;;9.30;55.02
21706;BME280;11014;53.076;18.208;2023-11-18T13:05:06;102242.88;;;9.36;55.27
21706;BME280;11014;53.076;18.208;2023-11-18T13:07:40;102241.94;;;9.29;55.15
21706;BME280;11014;53.076;18.208;2023-11-18T13:10:10;102248.13;;;9.30;55.53
21706;BME280;11014;53.076;18.208;2023-11-18T13:12:44;102255.06;;;9.24;55.90
21706;BME280;11014;53.076;18.208;2023-11-18T13:15:14;102264.84;;;9.17;55.83
21706;BME280;11014;53.076;18.208;2023-11-18T13:18:02;102266.50;;;9.18;55.98
21706;BME280;11014;53.076;18.208;2023-11-18T13:20:40;102255.09;;;9.02;56.38
21706;BME280;11014;53.076;18.208;2023-11-18T13:23:40;102258.31;;;8.97;56.50
21706;BME280;11014;53.076;18.208;2023-11-18T13:27:40;102245.28;;;8.94;56.84
21706;BME280;11014;53.076;18.208;2023-11-18T13:34:46;102269.03;;;8.74;56.68
21706;BME280;11014;53.076;18.208;2023-11-18T13:37:48;102262.97;;;8.58;56.79
21706;BME280;11014;53.076;18.208;2023-11-18T13:40:45;102252.63;;;8.55;57.13
21706;BME280;11014;53.076;18.208;2023-11-18T13:43:45;102254.97;;;8.50;57.27
21706;BME280;11014;53.076;18.208;2023-11-18T13:46:39;102259.88;;;8.46;57.38
21706;BME280;11014;53.076;18.208;2023-11-18T13:50:16;102259.38;;;8.43;57.60